createdAt,value
2018-06-09T00:01:11.007Z,19.10
2018-06-09T00:03:14.136Z,17.03
2018-06-09T00:05:18.312Z,18.50
2018-06-09T00:07:21.440Z,18.33
2018-06-09T00:09:24.584Z,16.80
2018-06-09T00:11:27.724Z,16.20
2018-06-09T00:13:30.663Z,16.03
2018-06-09T00:15:33.832Z,15.37
2018-06-09T00:17:37.080Z,16.00
2018-06-09T00:19:40.241Z,15.87
2018-06-09T00:21:43.380Z,17.17
2018-06-09T00:23:46.517Z,15.63
2018-06-09T00:25:49.672Z,13.77
2018-06-09T00:27:52.816Z,14.57
2018-06-09T00:29:55.948Z,14.93
2018-06-09T00:31:59.087Z,15.17
2018-06-09T00:34:02.301Z,15.80
2018-06-09T00:36:05.476Z,15.40
2018-06-09T00:38:09.360Z,15.17
2018-06-09T00:40:12.508Z,15.60
2018-06-09T00:42:15.684Z,15.80
2018-06-09T00:44:18.836Z,19.37
2018-06-09T00:46:21.985Z,17.47
2018-06-09T00:48:24.948Z,16.80
2018-06-09T00:50:28.084Z,16.77
2018-06-09T00:52:31.228Z,18.17
2018-06-09T00:54:34.368Z,18.90
2018-06-09T00:56:43.415Z,18.97
2018-06-09T00:58:46.544Z,19.20
2018-06-09T01:00:49.693Z,17.17
2018-06-09T01:02:52.824Z,21.00
2018-06-09T01:04:55.964Z,19.73
2018-06-09T01:06:59.113Z,20.53
2018-06-09T01:09:02.248Z,20.53
2018-06-09T01:11:05.386Z,19.70
2018-06-09T01:13:08.824Z,21.20
2018-06-09T01:15:11.968Z,19.73
2018-06-09T01:17:15.109Z,18.80
2018-06-09T01:19:18.251Z,21.10
2018-06-09T01:21:21.379Z,19.40
2018-06-09T01:23:24.539Z,18.43
2018-06-09T01:25:27.680Z,19.20
2018-06-09T01:27:30.832Z,19.90
2018-06-09T01:29:33.964Z,18.83
2018-06-09T01:31:37.095Z,17.97
2018-06-09T01:33:40.230Z,17.00
2018-06-09T01:35:43.368Z,17.40
2018-06-09T01:37:46.523Z,19.10
2018-06-09T01:39:49.668Z,19.63
2018-06-09T01:41:52.826Z,17.93
2018-06-09T01:43:55.998Z,18.67
2018-06-09T01:45:59.135Z,18.03
2018-06-09T01:48:02.682Z,17.40
2018-06-09T01:50:05.816Z,16.80
2018-06-09T01:52:08.943Z,16.67
2018-06-09T01:54:12.080Z,16.00
2018-06-09T01:58:40.903Z,17.00
2018-06-09T02:05:36.256Z,15.93
2018-06-09T02:07:39.459Z,16.97
2018-06-09T02:09:43.664Z,15.60
2018-06-09T02:14:12.232Z,16.73
2018-06-09T02:16:15.320Z,16.77
2018-06-09T02:18:18.431Z,16.40
2018-06-09T02:20:21.532Z,17.60
2018-06-09T02:22:24.621Z,15.97
2018-06-09T02:24:27.716Z,15.60
2018-06-09T02:26:30.792Z,16.37
2018-06-09T02:28:33.886Z,15.33
2018-06-09T02:30:36.976Z,16.27
2018-06-09T02:32:40.056Z,15.80
2018-06-09T02:34:43.162Z,15.77
2018-06-09T02:36:46.262Z,15.07
2018-06-09T02:38:49.360Z,14.47
2018-06-09T02:40:52.488Z,15.83
2018-06-09T02:42:55.740Z,16.20
2018-06-09T02:44:58.845Z,16.30
2018-06-09T02:47:02.224Z,17.07
2018-06-09T02:49:05.674Z,14.90
2018-06-09T02:51:08.816Z,16.70
2018-06-09T02:53:11.916Z,16.43
2018-06-09T02:55:15.056Z,15.60
2018-06-09T02:57:18.728Z,18.00
2018-06-09T02:59:21.680Z,15.40
2018-06-09T03:01:24.792Z,15.90
2018-06-09T03:03:27.920Z,16.40
2018-06-09T03:05:31.148Z,16.93
2018-06-09T03:07:34.288Z,15.90
2018-06-09T03:09:37.689Z,15.37
2018-06-09T03:11:40.816Z,17.23
2018-06-09T03:13:44.580Z,16.70
2018-06-09T03:15:47.704Z,15.90
2018-06-09T03:17:50.842Z,15.20
2018-06-09T03:19:53.964Z,18.80
2018-06-09T03:21:57.772Z,17.70
2018-06-09T03:24:00.911Z,19.13
2018-06-09T03:26:04.040Z,17.33
2018-06-09T03:28:07.151Z,17.10
2018-06-09T03:30:10.284Z,19.17
2018-06-09T03:32:13.480Z,18.30
2018-06-09T03:34:16.636Z,18.77
2018-06-09T03:36:19.771Z,18.47
2018-06-09T03:38:22.897Z,22.13
2018-06-09T03:40:26.024Z,21.00
2018-06-09T03:42:29.130Z,21.40
2018-06-09T03:44:32.232Z,19.23
2018-06-09T03:46:35.355Z,19.13
2018-06-09T03:48:38.452Z,21.73
2018-06-09T03:50:41.568Z,18.50
2018-06-09T03:52:44.723Z,19.40
2018-06-09T03:54:47.840Z,17.17
2018-06-09T03:56:50.932Z,17.67
2018-06-09T03:58:54.025Z,18.37
2018-06-09T04:00:57.124Z,19.10
2018-06-09T04:03:00.229Z,20.83
2018-06-09T04:05:03.448Z,17.43
2018-06-09T04:07:06.558Z,17.40
2018-06-09T04:09:09.645Z,18.30
2018-06-09T04:11:12.607Z,19.70
2018-06-09T04:13:15.712Z,17.20
2018-06-09T04:15:18.800Z,16.13
2018-06-09T04:17:22.328Z,17.27
2018-06-09T04:19:25.428Z,17.37
2018-06-09T04:21:28.530Z,16.83
2018-06-09T04:23:31.636Z,17.30
2018-06-09T04:25:34.748Z,16.20
2018-06-09T04:27:37.851Z,16.80
2018-06-09T04:29:40.947Z,16.40
2018-06-09T04:31:44.035Z,15.77
2018-06-09T04:33:47.132Z,15.27
2018-06-09T04:35:50.224Z,15.23
2018-06-09T04:37:53.340Z,14.70
2018-06-09T04:39:56.462Z,16.00
2018-06-09T04:41:59.576Z,16.77
2018-06-09T04:44:02.692Z,14.87
2018-06-09T04:46:05.843Z,15.53
2018-06-09T04:48:08.937Z,16.00
2018-06-09T04:50:12.060Z,14.40
2018-06-09T04:52:15.222Z,15.10
2018-06-09T04:54:18.315Z,14.07
2018-06-09T04:56:21.424Z,16.50
2018-06-09T04:58:24.375Z,15.70
2018-06-09T05:00:27.482Z,14.17
2018-06-09T05:02:30.465Z,14.93
2018-06-09T05:04:33.427Z,14.70
2018-06-09T05:06:36.541Z,14.97
2018-06-09T05:08:39.682Z,15.33
2018-06-09T05:10:42.847Z,15.13
2018-06-09T05:12:45.984Z,15.37
2018-06-09T05:14:49.119Z,15.57
2018-06-09T05:16:52.228Z,15.13
2018-06-09T05:18:55.356Z,14.67
2018-06-09T05:20:58.620Z,14.50
2018-06-09T05:23:01.791Z,16.30
2018-06-09T05:25:05.100Z,14.47
2018-06-09T05:27:08.228Z,14.53
2018-06-09T05:29:11.360Z,15.07
2018-06-09T05:31:14.489Z,13.50
2018-06-09T05:33:17.612Z,14.43
2018-06-09T05:35:20.732Z,13.80
2018-06-09T05:37:23.857Z,13.33
2018-06-09T05:39:26.979Z,13.83
2018-06-09T05:41:30.108Z,13.33
2018-06-09T05:43:33.248Z,13.20
2018-06-09T05:45:36.383Z,13.97
2018-06-09T05:47:39.512Z,13.27
2018-06-09T05:49:42.636Z,11.57
2018-06-09T05:51:45.760Z,12.00
2018-06-09T05:53:48.913Z,10.90
2018-06-09T05:55:52.014Z,12.87
2018-06-09T05:57:55.139Z,12.93
2018-06-09T05:59:58.276Z,12.43
2018-06-09T06:02:01.409Z,12.60
2018-06-09T06:04:04.592Z,12.50
2018-06-09T06:06:07.649Z,13.00
2018-06-09T06:08:10.764Z,13.53
2018-06-09T06:10:13.886Z,12.93
2018-06-09T06:12:17.008Z,14.57
2018-06-09T06:14:20.122Z,13.80
2018-06-09T06:16:23.232Z,13.57
2018-06-09T06:18:26.392Z,13.87
2018-06-09T06:20:29.528Z,13.93
2018-06-09T06:22:32.640Z,13.27
2018-06-09T06:24:35.744Z,14.57
2018-06-09T06:26:38.863Z,13.40
2018-06-09T06:28:41.964Z,13.83
2018-06-09T06:30:45.052Z,14.87
2018-06-09T06:32:48.169Z,13.93
2018-06-09T06:34:51.293Z,13.87
2018-06-09T06:36:54.396Z,16.13
2018-06-09T06:38:57.504Z,13.93
2018-06-09T06:41:01.603Z,14.30
2018-06-09T06:43:04.716Z,14.93
2018-06-09T06:45:07.833Z,13.60
2018-06-09T06:47:11.025Z,15.37
2018-06-09T06:49:15.129Z,13.50
2018-06-09T06:51:18.268Z,15.20
2018-06-09T06:53:21.172Z,13.57
2018-06-09T06:55:24.414Z,12.93
2018-06-09T06:57:27.548Z,14.27
2018-06-09T06:59:30.682Z,14.90
2018-06-09T07:01:33.831Z,14.87
2018-06-09T07:03:36.980Z,12.97
2018-06-09T07:05:42.992Z,14.07
2018-06-09T07:07:46.191Z,13.73
2018-06-09T07:09:49.303Z,13.97
2018-06-09T07:11:52.445Z,13.13
2018-06-09T07:13:55.583Z,14.63
2018-06-09T07:15:58.766Z,12.90
2018-06-09T07:18:01.900Z,14.30
2018-06-09T07:20:05.012Z,15.10
2018-06-09T07:22:08.164Z,12.73
2018-06-09T07:24:11.244Z,12.80
2018-06-09T07:26:14.372Z,13.20
2018-06-09T07:28:17.541Z,13.47
2018-06-09T07:30:20.644Z,12.20
2018-06-09T07:32:23.619Z,12.90
2018-06-09T07:34:26.738Z,14.03
2018-06-09T07:36:29.868Z,12.83
2018-06-09T07:38:33.000Z,12.30
2018-06-09T07:40:35.903Z,14.00
2018-06-09T07:42:39.128Z,13.27
2018-06-09T07:44:42.244Z,11.53
2018-06-09T07:46:45.208Z,13.93
2018-06-09T07:48:48.308Z,13.47
2018-06-09T07:50:51.391Z,13.87
2018-06-09T07:52:54.271Z,13.83
2018-06-09T07:54:57.229Z,15.63
2018-06-09T07:57:00.324Z,14.50
2018-06-09T07:59:03.457Z,13.47
2018-06-09T08:01:06.604Z,14.10
2018-06-09T08:03:09.719Z,14.13
2018-06-09T08:05:12.794Z,14.77
2018-06-09T08:07:15.894Z,15.90
2018-06-09T08:09:18.984Z,15.10
2018-06-09T08:11:22.096Z,14.30
2018-06-09T08:13:25.221Z,13.60
2018-06-09T08:15:28.308Z,14.37
2018-06-09T08:17:31.397Z,15.90
2018-06-09T08:19:34.866Z,14.77
2018-06-09T08:21:37.988Z,14.13
2018-06-09T08:23:40.942Z,13.63
2018-06-09T08:25:44.153Z,16.50
2018-06-09T08:27:47.087Z,15.50
2018-06-09T08:29:50.186Z,15.27
2018-06-09T08:31:53.268Z,13.83
2018-06-09T08:33:56.376Z,15.80
2018-06-09T08:35:59.479Z,15.20
2018-06-09T08:38:02.964Z,15.50
2018-06-09T08:40:06.078Z,14.40
2018-06-09T08:42:09.174Z,15.47
2018-06-09T08:44:12.260Z,15.03
2018-06-09T08:46:15.448Z,15.07
2018-06-09T08:48:18.532Z,14.10
2018-06-09T08:50:21.626Z,16.10
2018-06-09T08:52:24.704Z,15.67
2018-06-09T08:54:27.817Z,17.13
2018-06-09T08:56:30.932Z,14.73
2018-06-09T08:58:34.018Z,15.90
2018-06-09T09:00:37.124Z,15.73
2018-06-09T09:02:40.317Z,14.73
2018-06-09T09:04:43.504Z,16.20
2018-06-09T09:06:46.593Z,14.00
2018-06-09T09:08:49.674Z,14.90
2018-06-09T09:10:52.880Z,15.50
2018-06-09T09:12:55.984Z,16.07
2018-06-09T09:14:59.056Z,14.67
2018-06-09T09:17:02.185Z,15.30
2018-06-09T09:19:05.292Z,15.93
2018-06-09T09:21:08.385Z,15.37
2018-06-09T09:23:11.489Z,15.87
2018-06-09T09:25:14.580Z,15.80
2018-06-09T09:27:17.740Z,16.73
2018-06-09T09:29:20.938Z,15.07
2018-06-09T09:31:24.032Z,15.90
2018-06-09T09:33:27.131Z,15.20
2018-06-09T09:35:30.223Z,16.63
2018-06-09T09:37:33.307Z,17.37
2018-06-09T09:39:36.396Z,16.90
2018-06-09T09:41:39.560Z,16.07
2018-06-09T09:43:42.673Z,16.87
2018-06-09T09:45:45.773Z,14.83
2018-06-09T09:47:48.756Z,15.90
2018-06-09T09:49:51.891Z,15.63
2018-06-09T09:51:55.017Z,16.97
2018-06-09T09:53:58.156Z,16.87
2018-06-09T09:56:01.284Z,15.13
2018-06-09T09:58:04.419Z,15.97
2018-06-09T10:00:07.552Z,16.67
2018-06-09T10:02:10.651Z,16.93
2018-06-09T10:04:13.753Z,16.17
2018-06-09T10:06:16.932Z,16.57
2018-06-09T10:08:20.057Z,14.83
2018-06-09T10:10:23.180Z,13.80
2018-06-09T10:12:26.279Z,16.77
2018-06-09T10:14:29.424Z,14.97
2018-06-09T10:16:32.572Z,15.00
2018-06-09T10:18:35.719Z,15.03
2018-06-09T10:20:38.828Z,15.07
2018-06-09T10:22:42.072Z,14.50
2018-06-09T10:24:45.179Z,18.20
2018-06-09T10:26:48.280Z,16.20
2018-06-09T10:28:51.416Z,16.50
2018-06-09T10:30:54.550Z,17.10
2018-06-09T10:32:57.736Z,16.83
2018-06-09T10:35:00.843Z,16.30
2018-06-09T10:37:04.117Z,16.87
2018-06-09T10:39:07.952Z,17.70
2018-06-09T10:41:11.566Z,16.30
2018-06-09T10:43:14.861Z,17.67
2018-06-09T10:45:17.956Z,17.20
2018-06-09T10:47:21.035Z,17.67
2018-06-09T10:49:24.125Z,16.67
2018-06-09T10:51:27.295Z,17.33
2018-06-09T10:53:30.385Z,16.40
2018-06-09T10:55:33.553Z,18.80
2018-06-09T10:57:36.483Z,17.83
2018-06-09T10:59:39.619Z,17.77
2018-06-09T11:01:42.493Z,17.50
2018-06-09T11:03:45.585Z,19.47
2018-06-09T11:05:48.659Z,16.87
2018-06-09T11:07:51.856Z,17.40
2018-06-09T11:09:54.794Z,17.17
2018-06-09T11:11:57.880Z,17.80
2018-06-09T11:14:00.996Z,19.23
2018-06-09T11:16:03.920Z,20.77
2018-06-09T11:18:07.027Z,18.80
2018-06-09T11:20:10.145Z,18.60
2018-06-09T11:22:13.280Z,17.63
2018-06-09T11:24:16.372Z,19.97
2018-06-09T11:26:19.464Z,22.60
2018-06-09T11:28:22.548Z,20.30
2018-06-09T11:30:25.648Z,20.83
2018-06-09T11:32:28.796Z,19.00
2018-06-09T11:34:31.891Z,19.70
2018-06-09T11:36:35.026Z,21.97
2018-06-09T11:38:38.148Z,20.00
2018-06-09T11:40:41.256Z,21.53
2018-06-09T11:42:44.376Z,21.33
2018-06-09T11:44:47.492Z,20.00
2018-06-09T11:46:50.608Z,21.13
2018-06-09T11:48:53.720Z,21.53
2018-06-09T11:50:56.825Z,23.03
2018-06-09T11:52:59.947Z,19.50
2018-06-09T11:55:03.061Z,20.83
2018-06-09T11:57:06.176Z,21.70
2018-06-09T11:59:09.297Z,21.93
2018-06-09T12:01:12.570Z,23.90
2018-06-09T12:03:15.692Z,22.50
2018-06-09T12:05:18.839Z,24.30
2018-06-09T12:07:21.952Z,22.53
2018-06-09T12:09:25.072Z,22.70
2018-06-09T12:11:28.172Z,21.13
2018-06-09T12:13:31.307Z,24.73
2018-06-09T12:15:34.424Z,23.57
2018-06-09T12:17:37.653Z,22.17
2018-06-09T12:19:40.771Z,23.90
2018-06-09T12:21:43.889Z,22.23
2018-06-09T12:23:47.010Z,26.10
2018-06-09T12:25:50.984Z,21.17
2018-06-09T12:27:54.093Z,22.57
2018-06-09T12:29:57.232Z,23.50
2018-06-09T12:32:00.363Z,22.10
2018-06-09T12:34:03.487Z,20.20
2018-06-09T12:36:06.616Z,21.10
2018-06-09T12:38:09.760Z,23.20
2018-06-09T12:40:12.888Z,23.03
2018-06-09T12:42:16.001Z,21.40
2018-06-09T12:44:19.157Z,21.30
2018-06-09T12:46:22.355Z,23.10
2018-06-09T12:48:25.484Z,22.63
2018-06-09T12:50:28.544Z,19.23
2018-06-09T12:52:32.199Z,21.20
2018-06-09T12:54:35.432Z,20.47
2018-06-09T12:56:38.639Z,19.67
2018-06-09T12:58:41.820Z,21.33
2018-06-09T13:00:46.395Z,22.13
2018-06-09T13:02:49.512Z,19.13
2018-06-09T13:04:52.595Z,19.40
2018-06-09T13:06:55.679Z,20.57
2018-06-09T13:08:58.758Z,19.70
2018-06-09T13:11:01.721Z,19.77
2018-06-09T13:13:05.794Z,20.83
2018-06-09T13:15:08.901Z,20.17
2018-06-09T13:17:12.040Z,21.70
2018-06-09T13:19:15.152Z,20.63
2018-06-09T13:21:18.260Z,21.17
2018-06-09T13:23:21.372Z,20.30
2018-06-09T13:25:24.464Z,22.57
2018-06-09T13:27:27.676Z,19.40
2018-06-09T13:29:30.756Z,19.90
2018-06-09T13:31:33.840Z,20.90
2018-06-09T13:33:36.952Z,21.57
2018-06-09T13:35:40.043Z,20.00
2018-06-09T13:37:43.149Z,19.40
2018-06-09T13:39:46.235Z,20.40
2018-06-09T13:41:49.360Z,21.73
2018-06-09T13:43:52.470Z,21.00
2018-06-09T13:45:55.564Z,19.57
2018-06-09T13:47:58.691Z,25.23
2018-06-09T13:50:01.811Z,20.90
2018-06-09T13:52:05.080Z,21.07
2018-06-09T13:54:08.204Z,21.40
2018-06-09T13:56:11.328Z,20.30
2018-06-09T13:58:14.494Z,21.80
2018-06-09T14:00:17.625Z,21.33
2018-06-09T14:02:20.736Z,20.63
2018-06-09T14:04:23.856Z,22.67
2018-06-09T14:06:27.295Z,23.60
2018-06-09T14:08:30.485Z,21.53
2018-06-09T14:10:33.606Z,19.83
2018-06-09T14:12:36.715Z,20.37
2018-06-09T14:14:41.239Z,23.30
2018-06-09T14:16:44.341Z,20.43
2018-06-09T14:18:48.127Z,18.47
2018-06-09T14:20:51.230Z,18.63
2018-06-09T14:22:54.352Z,19.60
2018-06-09T14:24:57.449Z,20.43
2018-06-09T14:27:00.560Z,19.57
2018-06-09T14:29:03.656Z,20.00
2018-06-09T14:31:06.792Z,20.67
2018-06-09T14:33:09.908Z,19.97
2018-06-09T14:35:13.027Z,21.50
2018-06-09T14:37:16.147Z,19.83
2018-06-09T14:39:19.268Z,20.20
2018-06-09T14:41:22.384Z,19.03
2018-06-09T14:43:25.468Z,21.27
2018-06-09T14:45:28.607Z,20.33
2018-06-09T14:47:31.748Z,20.87
2018-06-09T14:49:34.908Z,19.00
2018-06-09T14:51:38.402Z,18.70
2018-06-09T14:53:41.498Z,19.13
2018-06-09T14:55:44.664Z,18.97
2018-06-09T14:57:47.803Z,20.70
2018-06-09T14:59:50.931Z,19.20
2018-06-09T15:01:54.037Z,20.80
2018-06-09T15:03:57.139Z,18.70
2018-06-09T15:06:00.271Z,17.83
2018-06-09T15:08:03.436Z,18.87
2018-06-09T15:10:06.565Z,18.33
2018-06-09T15:12:09.676Z,20.13
2018-06-09T15:14:12.780Z,17.87
2018-06-09T15:16:15.916Z,17.30
2018-06-09T15:18:19.040Z,18.73
2018-06-09T15:20:22.156Z,16.10
2018-06-09T15:22:25.412Z,17.30
2018-06-09T15:24:28.519Z,16.10
2018-06-09T15:26:31.664Z,16.97
2018-06-09T15:28:34.921Z,16.93
2018-06-09T15:30:38.040Z,16.20
2018-06-09T15:32:40.936Z,18.80
2018-06-09T15:34:44.050Z,18.97
2018-06-09T15:36:47.160Z,18.80
2018-06-09T15:38:50.292Z,17.70
2018-06-09T15:40:53.523Z,17.40
2018-06-09T15:42:56.619Z,18.10
2018-06-09T15:44:59.743Z,17.60
2018-06-09T15:47:02.876Z,17.70
2018-06-09T15:49:05.980Z,18.20
2018-06-09T15:51:09.099Z,16.00
2018-06-09T15:53:12.194Z,18.00
2018-06-09T15:55:15.296Z,15.93
2018-06-09T15:57:18.422Z,18.70
2018-06-09T15:59:21.520Z,16.20
2018-06-09T16:01:24.612Z,18.80
2018-06-09T16:03:27.735Z,19.80
2018-06-09T16:05:30.820Z,16.53
2018-06-09T16:07:33.944Z,17.40
2018-06-09T16:09:37.111Z,15.87
2018-06-09T16:11:40.188Z,14.90
2018-06-09T16:13:43.288Z,20.60
2018-06-09T16:15:46.367Z,18.93
2018-06-09T16:17:49.885Z,17.73
2018-06-09T16:19:52.759Z,15.83
2018-06-09T16:21:58.445Z,16.03
2018-06-09T16:24:01.824Z,16.50
2018-06-09T16:26:05.211Z,15.80
2018-06-09T16:28:08.472Z,16.60
2018-06-09T16:30:11.612Z,16.47
2018-06-09T16:32:15.440Z,17.23
2018-06-09T16:34:22.979Z,16.53
2018-06-09T16:36:26.056Z,17.07
2018-06-09T16:38:29.183Z,16.97
2018-06-09T16:40:32.267Z,15.00
2018-06-09T16:42:35.380Z,15.60
2018-06-09T16:44:38.481Z,15.37
2018-06-09T16:46:41.559Z,17.10
2018-06-09T16:48:44.712Z,15.80
2018-06-09T16:50:47.804Z,15.20
2018-06-09T16:52:50.891Z,15.00
2018-06-09T16:54:53.993Z,13.83
2018-06-09T16:56:57.103Z,14.30
2018-06-09T16:59:01.270Z,13.87
2018-06-09T17:01:04.396Z,16.30
2018-06-09T17:03:07.435Z,15.90
2018-06-09T17:05:10.543Z,15.40
2018-06-09T17:07:14.044Z,15.07
2018-06-09T17:09:17.209Z,14.90
2018-06-09T17:11:21.072Z,14.47
2018-06-09T17:13:24.211Z,16.07
2018-06-09T17:15:27.332Z,15.20
2018-06-09T17:17:30.437Z,15.83
2018-06-09T17:19:33.596Z,16.03
2018-06-09T17:21:36.704Z,16.13
2018-06-09T17:23:39.807Z,16.37
2018-06-09T17:25:42.928Z,16.47
2018-06-09T17:27:46.064Z,17.67
2018-06-09T17:29:49.276Z,15.20
2018-06-09T17:31:52.380Z,15.60
2018-06-09T17:33:55.484Z,15.30
2018-06-09T17:35:58.605Z,16.13
2018-06-09T17:38:01.528Z,15.53
2018-06-09T17:40:04.832Z,16.07
2018-06-09T17:42:07.943Z,15.60
2018-06-09T17:44:11.063Z,16.17
2018-06-09T17:46:14.248Z,15.67
2018-06-09T17:48:17.356Z,16.67
2018-06-09T17:50:20.488Z,15.00
2018-06-09T17:52:23.597Z,15.70
2018-06-09T17:54:26.727Z,16.77
2018-06-09T17:56:29.896Z,15.27
2018-06-09T17:58:33.080Z,14.80
2018-06-09T18:00:36.181Z,16.10
2018-06-09T18:02:39.297Z,15.50
2018-06-09T18:04:42.446Z,14.97
2018-06-09T18:06:45.596Z,15.13
2018-06-09T18:08:48.695Z,14.50
2018-06-09T18:10:51.812Z,15.33
2018-06-09T18:12:54.932Z,16.30
2018-06-09T18:14:57.863Z,15.63
2018-06-09T18:17:00.976Z,15.80
2018-06-09T18:19:04.088Z,17.43
2018-06-09T18:21:06.979Z,17.10
2018-06-09T18:23:10.193Z,15.50
2018-06-09T18:25:13.388Z,16.37
2018-06-09T18:27:16.489Z,15.83
2018-06-09T18:29:19.696Z,16.27
2018-06-09T18:31:22.629Z,16.23
2018-06-09T18:33:25.832Z,18.30
2018-06-09T18:35:28.967Z,16.63
2018-06-09T18:37:31.974Z,18.00
2018-06-09T18:39:35.173Z,16.20
2018-06-09T18:41:39.105Z,17.30
2018-06-09T18:43:42.481Z,17.00
2018-06-09T18:45:45.544Z,18.90
2018-06-09T18:47:48.710Z,17.90
2018-06-09T18:49:51.820Z,20.10
2018-06-09T18:51:55.041Z,19.27
2018-06-09T18:53:58.192Z,19.00
2018-06-09T18:56:01.300Z,17.50
2018-06-09T18:58:04.558Z,18.33
2018-06-09T19:00:07.698Z,19.10
2018-06-09T19:02:10.819Z,20.03
2018-06-09T19:04:13.938Z,18.77
2018-06-09T19:06:17.108Z,17.97
2018-06-09T19:08:20.241Z,19.83
2018-06-09T19:10:23.348Z,20.03
2018-06-09T19:12:26.536Z,20.67
2018-06-09T19:14:29.645Z,20.03
2018-06-09T19:16:32.760Z,20.07
2018-06-09T19:18:35.863Z,19.37
2018-06-09T19:20:38.973Z,21.40
2018-06-09T19:22:42.220Z,19.80
2018-06-09T19:24:45.316Z,21.13
2018-06-09T19:26:48.485Z,20.67
2018-06-09T19:28:51.605Z,20.70
2018-06-09T19:30:54.558Z,22.27
2018-06-09T19:32:57.660Z,21.93
2018-06-09T19:35:00.772Z,21.50
2018-06-09T19:37:03.884Z,20.63
2018-06-09T19:39:07.992Z,20.50
2018-06-09T19:41:12.085Z,21.37
2018-06-09T19:43:15.316Z,21.03
2018-06-09T19:45:18.407Z,20.13
2018-06-09T19:47:21.488Z,19.03
2018-06-09T19:49:24.652Z,18.13
2018-06-09T19:51:27.736Z,18.53
2018-06-09T19:53:30.836Z,19.63
2018-06-09T19:55:33.923Z,19.97
2018-06-09T19:57:36.997Z,13.03
2018-06-09T19:59:40.099Z,8.90
2018-06-09T20:01:43.206Z,7.10
2018-06-09T20:03:46.484Z,7.60
2018-06-09T20:05:49.728Z,6.73
2018-06-09T20:07:52.972Z,7.90
2018-06-09T20:09:56.090Z,9.17
2018-06-09T20:11:59.211Z,9.63
2018-06-09T20:14:02.500Z,11.67
2018-06-09T20:16:05.665Z,10.20
2018-06-09T20:18:08.780Z,10.97
2018-06-09T20:20:11.972Z,10.33
2018-06-09T20:22:15.060Z,10.67
2018-06-09T20:24:18.148Z,14.23
2018-06-09T20:26:21.240Z,21.20
2018-06-09T20:28:24.307Z,15.57
2018-06-09T20:30:27.417Z,13.30
2018-06-09T20:32:30.500Z,9.60
2018-06-09T20:34:33.588Z,11.00
2018-06-09T20:36:37.496Z,9.10
2018-06-09T20:38:40.580Z,8.87
2018-06-09T20:40:43.666Z,8.40
2018-06-09T20:42:46.543Z,7.50
2018-06-09T20:44:49.897Z,8.63
2018-06-09T20:46:53.005Z,8.97
2018-06-09T20:48:56.136Z,7.40
2018-06-09T20:50:59.220Z,7.40
2018-06-09T20:53:02.317Z,6.20
2018-06-09T20:55:05.400Z,5.37
2018-06-09T20:57:08.587Z,6.13
2018-06-09T20:59:11.664Z,6.10
2018-06-09T21:01:14.744Z,7.47
2018-06-09T21:03:17.847Z,9.07
2018-06-09T21:05:20.952Z,7.93
2018-06-09T21:07:24.048Z,7.67
2018-06-09T21:09:27.128Z,7.47
2018-06-09T21:11:30.218Z,9.60
2018-06-09T21:13:33.312Z,9.07
2018-06-09T21:15:36.404Z,10.00
2018-06-09T21:17:39.524Z,8.80
2018-06-09T21:19:42.608Z,8.20
2018-06-09T21:21:45.704Z,9.73
2018-06-09T21:23:48.788Z,11.90
2018-06-09T21:25:51.868Z,10.73
2018-06-09T21:28:00.468Z,11.23
2018-06-09T21:30:09.718Z,10.70
2018-06-09T21:32:17.108Z,11.50
2018-06-09T21:34:33.120Z,13.10
2018-06-09T21:36:41.589Z,13.87
2018-06-09T21:38:50.179Z,14.50
2018-06-09T21:40:58.745Z,14.70
2018-06-09T21:43:07.305Z,15.93
2018-06-09T21:45:11.656Z,15.47
2018-06-09T21:47:14.832Z,16.70
2018-06-09T21:49:18.028Z,16.47
2018-06-09T21:51:21.129Z,15.63
2018-06-09T21:53:24.212Z,17.30
2018-06-09T21:55:27.322Z,19.27
2018-06-09T21:57:30.461Z,20.30
2018-06-09T21:59:33.584Z,20.03
2018-06-09T22:01:37.568Z,18.70
2018-06-09T22:03:40.656Z,17.20
2018-06-09T22:05:43.743Z,17.40
2018-06-09T22:07:46.845Z,18.50
2018-06-09T22:09:49.957Z,19.97
2018-06-09T22:11:53.049Z,18.47
2018-06-09T22:13:56.154Z,21.30
2018-06-09T22:15:59.261Z,21.47
2018-06-09T22:18:02.348Z,21.80
2018-06-09T22:20:05.518Z,20.83
2018-06-09T22:22:08.636Z,21.40
2018-06-09T22:24:11.693Z,21.60
2018-06-09T22:26:15.636Z,20.47
2018-06-09T22:28:18.755Z,19.10
2018-06-09T22:30:21.852Z,20.27
2018-06-09T22:32:25.865Z,21.30
2018-06-09T22:34:28.956Z,21.70
2018-06-09T22:36:32.035Z,20.93
2018-06-09T22:38:35.146Z,20.63
2018-06-09T22:40:38.240Z,20.87
2018-06-09T22:42:41.356Z,22.93
2018-06-09T22:44:44.464Z,22.80
2018-06-09T22:46:47.585Z,22.17
2018-06-09T22:48:50.788Z,21.50
2018-06-09T22:50:53.896Z,22.43
2018-06-09T22:52:57.061Z,22.80
2018-06-09T22:55:00.184Z,22.83
2018-06-09T22:57:03.292Z,21.57
2018-06-09T22:59:06.405Z,20.50
2018-06-09T23:01:09.557Z,23.80
2018-06-09T23:03:12.772Z,22.00
2018-06-09T23:05:15.904Z,20.53
2018-06-09T23:07:19.024Z,20.10
2018-06-09T23:09:22.164Z,19.23
2018-06-09T23:13:33.758Z,17.70
2018-06-09T23:15:36.896Z,19.37
2018-06-09T23:17:40.029Z,18.20
2018-06-09T23:19:43.148Z,17.93
2018-06-09T23:21:46.264Z,18.90
2018-06-09T23:23:49.380Z,18.90
2018-06-09T23:25:52.566Z,18.93
2018-06-09T23:27:55.711Z,16.57
2018-06-09T23:29:58.825Z,17.57
2018-06-09T23:32:01.949Z,18.00
2018-06-09T23:34:05.092Z,17.83
2018-06-09T23:36:08.247Z,19.23
2018-06-09T23:38:11.392Z,18.60
2018-06-09T23:40:14.578Z,18.40
2018-06-09T23:42:24.362Z,17.87
2018-06-09T23:44:27.560Z,17.30
2018-06-09T23:46:30.652Z,21.13
2018-06-09T23:48:33.843Z,18.43
2018-06-09T23:50:36.936Z,22.20
2018-06-09T23:52:40.112Z,21.63
2018-06-09T23:54:44.100Z,20.30
2018-06-09T23:56:48.145Z,23.80
2018-06-09T23:58:51.241Z,23.23
